sensor_id;sensor_type;location;lat;lon;timestamp;pressure;altitude;pressure_sealevel;temperature;humidity
84522;BME280;74758;50.066;20.008;2024-01-30T00:01:21;101143.05;;;-0.06;70.95
84522;BME280;74758;50.066;20.008;2024-01-30T00:03:23;101137.34;;;-0.05;70.87
84522;BME280;74758;50.066;20.008;2024-01-30T00:05:25;101141.10;;;-0.03;70.52
84522;BME280;74758;50.066;20.008;2024-01-30T00:07:26;101133.30;;;-0.02;70.80
84522;BME280;74758;50.066;20.008;2024-01-30T00:09:28;101133.30;;;-0.03;70.82
84522;BME280;74758;50.066;20.008;2024-01-30T00:11:30;101129.35;;;-0.04;70.59
84522;BME280;74758;50.066;20.008;2024-01-30T00:13:32;101126.42;;;-0.05;70.44
84522;BME280;74758;50.066;20.008;2024-01-30T00:15:34;101124.92;;;-0.07;70.52
84522;BME280;74758;50.066;20.008;2024-01-30T00:17:37;101125.84;;;-0.10;70.79
84522;BME280;74758;50.066;20.008;2024-01-30T00:19:39;101127.61;;;-0.13;70.83
84522;BME280;74758;50.066;20.008;2024-01-30T00:21:40;101127.64;;;-0.15;70.97
84522;BME280;74758;50.066;20.008;2024-01-30T00:23:43;101131.67;;;-0.18;71.04
84522;BME280;74758;50.066;20.008;2024-01-30T00:25:44;101134.14;;;-0.21;70.79
84522;BME280;74758;50.066;20.008;2024-01-30T00:27:46;101130.05;;;-0.25;70.78
84522;BME280;74758;50.066;20.008;2024-01-30T00:29:48;101132.02;;;-0.28;71.15
84522;BME280;74758;50.066;20.008;2024-01-30T00:31:49;101135.85;;;-0.31;70.54
84522;BME280;74758;50.066;20.008;2024-01-30T00:33:51;101135.21;;;-0.35;70.47
84522;BME280;74758;50.066;20.008;2024-01-30T00:35:53;101131.63;;;-0.37;70.79
84522;BME280;74758;50.066;20.008;2024-01-30T00:37:55;101132.65;;;-0.36;70.56
84522;BME280;74758;50.066;20.008;2024-01-30T00:39:57;101130.59;;;-0.37;70.78
84522;BME280;74758;50.066;20.008;2024-01-30T00:41:59;101127.30;;;-0.36;70.83
84522;BME280;74758;50.066;20.008;2024-01-30T00:44:01;101126.92;;;-0.35;70.55
84522;BME280;74758;50.066;20.008;2024-01-30T00:46:03;101125.52;;;-0.34;70.25
84522;BME280;74758;50.066;20.008;2024-01-30T00:48:05;101121.91;;;-0.35;70.07
84522;BME280;74758;50.066;20.008;2024-01-30T00:50:07;101123.63;;;-0.34;70.40
84522;BME280;74758;50.066;20.008;2024-01-30T00:52:09;101124.34;;;-0.35;70.41
84522;BME280;74758;50.066;20.008;2024-01-30T00:54:11;101124.69;;;-0.36;70.56
84522;BME280;74758;50.066;20.008;2024-01-30T00:56:13;101120.05;;;-0.38;70.28
84522;BME280;74758;50.066;20.008;2024-01-30T00:58:15;101119.41;;;-0.40;70.11
84522;BME280;74758;50.066;20.008;2024-01-30T01:00:17;101118.23;;;-0.42;70.58
84522;BME280;74758;50.066;20.008;2024-01-30T01:02:19;101121.02;;;-0.43;70.50
84522;BME280;74758;50.066;20.008;2024-01-30T01:04:20;101121.05;;;-0.45;70.31
84522;BME280;74758;50.066;20.008;2024-01-30T01:06:23;101114.22;;;-0.51;70.06
84522;BME280;74758;50.066;20.008;2024-01-30T01:08:24;101114.64;;;-0.56;70.23
84522;BME280;74758;50.066;20.008;2024-01-30T01:10:26;101117.33;;;-0.62;70.42
84522;BME280;74758;50.066;20.008;2024-01-30T01:12:29;101111.85;;;-0.68;70.69
84522;BME280;74758;50.066;20.008;2024-01-30T01:14:30;101113.45;;;-0.71;71.07
84522;BME280;74758;50.066;20.008;2024-01-30T01:16:33;101112.96;;;-0.73;70.88
84522;BME280;74758;50.066;20.008;2024-01-30T01:18:35;101117.61;;;-0.72;71.15
84522;BME280;74758;50.066;20.008;2024-01-30T01:20:36;101113.82;;;-0.72;71.08
84522;BME280;74758;50.066;20.008;2024-01-30T01:22:38;101115.86;;;-0.70;71.15
84522;BME280;74758;50.066;20.008;2024-01-30T01:24:40;101116.70;;;-0.69;70.64
84522;BME280;74758;50.066;20.008;2024-01-30T01:26:42;101119.45;;;-0.68;70.69
84522;BME280;74758;50.066;20.008;2024-01-30T01:28:44;101110.47;;;-0.68;71.33
84522;BME280;74758;50.066;20.008;2024-01-30T01:30:45;101103.22;;;-0.68;72.47
84522;BME280;74758;50.066;20.008;2024-01-30T01:32:48;101104.26;;;-0.68;72.35
84522;BME280;74758;50.066;20.008;2024-01-30T01:34:58;101102.01;;;-0.67;71.75
84522;BME280;74758;50.066;20.008;2024-01-30T01:37:00;101105.45;;;-0.68;71.23
84522;BME280;74758;50.066;20.008;2024-01-30T01:39:02;101102.36;;;-0.68;71.61
84522;BME280;74758;50.066;20.008;2024-01-30T01:41:04;101102.69;;;-0.67;71.70
84522;BME280;74758;50.066;20.008;2024-01-30T01:43:06;101101.48;;;-0.67;71.51
84522;BME280;74758;50.066;20.008;2024-01-30T01:45:08;101101.48;;;-0.68;71.58
84522;BME280;74758;50.066;20.008;2024-01-30T01:47:10;101102.56;;;-0.70;71.20
84522;BME280;74758;50.066;20.008;2024-01-30T01:49:13;101098.79;;;-0.72;71.20
84522;BME280;74758;50.066;20.008;2024-01-30T01:51:16;101099.34;;;-0.74;71.23
84522;BME280;74758;50.066;20.008;2024-01-30T01:53:18;101104.39;;;-0.77;71.02
84522;BME280;74758;50.066;20.008;2024-01-30T01:55:21;101106.31;;;-0.79;70.84
84522;BME280;74758;50.066;20.008;2024-01-30T01:57:23;101106.16;;;-0.80;70.97
84522;BME280;74758;50.066;20.008;2024-01-30T01:59:25;101104.24;;;-0.79;70.88
84522;BME280;74758;50.066;20.008;2024-01-30T02:01:28;101104.77;;;-0.79;71.24
84522;BME280;74758;50.066;20.008;2024-01-30T02:03:31;101103.03;;;-0.79;71.10
84522;BME280;74758;50.066;20.008;2024-01-30T02:05:32;101100.61;;;-0.78;71.12
84522;BME280;74758;50.066;20.008;2024-01-30T02:07:34;101096.65;;;-0.79;70.36
84522;BME280;74758;50.066;20.008;2024-01-30T02:09:36;101096.19;;;-0.83;70.45
84522;BME280;74758;50.066;20.008;2024-01-30T02:11:38;101095.19;;;-0.85;70.25
84522;BME280;74758;50.066;20.008;2024-01-30T02:13:41;101086.29;;;-0.90;70.45
84522;BME280;74758;50.066;20.008;2024-01-30T02:15:42;101086.85;;;-0.93;70.51
84522;BME280;74758;50.066;20.008;2024-01-30T02:17:44;101089.80;;;-0.95;70.40
84522;BME280;74758;50.066;20.008;2024-01-30T02:19:46;101090.71;;;-0.98;70.55
84522;BME280;74758;50.066;20.008;2024-01-30T02:21:48;101087.27;;;-1.00;70.83
84522;BME280;74758;50.066;20.008;2024-01-30T02:23:50;101087.81;;;-1.01;70.74
84522;BME280;74758;50.066;20.008;2024-01-30T02:25:52;101086.10;;;-1.03;70.83
84522;BME280;74758;50.066;20.008;2024-01-30T02:27:54;101087.69;;;-1.04;71.04
84522;BME280;74758;50.066;20.008;2024-01-30T02:29:56;101086.84;;;-1.06;70.88
84522;BME280;74758;50.066;20.008;2024-01-30T02:31:57;101090.15;;;-1.08;70.96
84522;BME280;74758;50.066;20.008;2024-01-30T02:33:59;101087.75;;;-1.09;71.10
84522;BME280;74758;50.066;20.008;2024-01-30T02:36:01;101083.27;;;-1.09;70.85
84522;BME280;74758;50.066;20.008;2024-01-30T02:38:03;101079.44;;;-1.07;70.75
84522;BME280;74758;50.066;20.008;2024-01-30T02:40:06;101078.56;;;-1.06;70.77
84522;BME280;74758;50.066;20.008;2024-01-30T02:42:07;101070.61;;;-1.04;70.90
84522;BME280;74758;50.066;20.008;2024-01-30T02:44:09;101071.44;;;-1.02;70.64
84522;BME280;74758;50.066;20.008;2024-01-30T02:46:11;101071.44;;;-1.03;70.39
84522;BME280;74758;50.066;20.008;2024-01-30T02:48:12;101069.37;;;-1.03;70.32
84522;BME280;74758;50.066;20.008;2024-01-30T02:50:14;101066.12;;;-1.05;70.34
84522;BME280;74758;50.066;20.008;2024-01-30T02:52:16;101063.89;;;-1.06;70.36
84522;BME280;74758;50.066;20.008;2024-01-30T02:54:18;101062.90;;;-1.08;70.31
84522;BME280;74758;50.066;20.008;2024-01-30T02:56:20;101060.20;;;-1.13;70.49
84522;BME280;74758;50.066;20.008;2024-01-30T02:58:22;101059.55;;;-1.17;70.30
84522;BME280;74758;50.066;20.008;2024-01-30T03:00:24;101060.60;;;-1.17;70.58
84522;BME280;74758;50.066;20.008;2024-01-30T03:02:26;101063.20;;;-1.17;70.52
84522;BME280;74758;50.066;20.008;2024-01-30T03:04:27;101062.16;;;-1.19;70.55
84522;BME280;74758;50.066;20.008;2024-01-30T03:06:31;101059.25;;;-1.20;70.64
84522;BME280;74758;50.066;20.008;2024-01-30T03:08:33;101056.54;;;-1.23;70.78
84522;BME280;74758;50.066;20.008;2024-01-30T03:10:36;101057.79;;;-1.25;70.68
84522;BME280;74758;50.066;20.008;2024-01-30T03:12:38;101054.20;;;-1.29;70.67
84522;BME280;74758;50.066;20.008;2024-01-30T03:14:39;101059.40;;;-1.34;70.32
84522;BME280;74758;50.066;20.008;2024-01-30T03:16:41;101063.61;;;-1.39;70.57
84522;BME280;74758;50.066;20.008;2024-01-30T03:18:42;101062.63;;;-1.43;70.80
84522;BME280;74758;50.066;20.008;2024-01-30T03:20:44;101064.88;;;-1.44;70.79
84522;BME280;74758;50.066;20.008;2024-01-30T03:22:46;101070.71;;;-1.42;70.54
84522;BME280;74758;50.066;20.008;2024-01-30T03:24:48;101065.69;;;-1.40;70.60
84522;BME280;74758;50.066;20.008;2024-01-30T03:26:49;101065.30;;;-1.37;70.82
84522;BME280;74758;50.066;20.008;2024-01-30T03:28:51;101063.73;;;-1.36;70.21
84522;BME280;74758;50.066;20.008;2024-01-30T03:30:53;101066.51;;;-1.36;70.27
84522;BME280;74758;50.066;20.008;2024-01-30T03:32:54;101067.58;;;-1.38;70.06
84522;BME280;74758;50.066;20.008;2024-01-30T03:34:56;101069.67;;;-1.41;70.20
84522;BME280;74758;50.066;20.008;2024-01-30T03:36:58;101069.18;;;-1.44;70.21
84522;BME280;74758;50.066;20.008;2024-01-30T03:39:00;101071.10;;;-1.45;70.62
84522;BME280;74758;50.066;20.008;2024-01-30T03:41:02;101071.29;;;-1.46;70.09
84522;BME280;74758;50.066;20.008;2024-01-30T03:43:04;101068.89;;;-1.47;70.43
84522;BME280;74758;50.066;20.008;2024-01-30T03:45:07;101068.55;;;-1.47;70.62
84522;BME280;74758;50.066;20.008;2024-01-30T03:47:09;101066.48;;;-1.48;70.53
84522;BME280;74758;50.066;20.008;2024-01-30T03:49:11;101064.44;;;-1.50;70.53
84522;BME280;74758;50.066;20.008;2024-01-30T03:51:12;101060.17;;;-1.53;71.01
84522;BME280;74758;50.066;20.008;2024-01-30T03:53:17;101061.05;;;-1.55;70.86
84522;BME280;74758;50.066;20.008;2024-01-30T03:55:19;101063.48;;;-1.56;70.69
84522;BME280;74758;50.066;20.008;2024-01-30T03:57:20;101066.46;;;-1.61;70.67
84522;BME280;74758;50.066;20.008;2024-01-30T03:59:22;101062.95;;;-1.69;71.00
84522;BME280;74758;50.066;20.008;2024-01-30T04:01:25;101064.36;;;-1.72;71.40
84522;BME280;74758;50.066;20.008;2024-01-30T04:03:27;101054.86;;;-1.71;71.57
84522;BME280;74758;50.066;20.008;2024-01-30T04:05:29;101052.77;;;-1.70;71.88
84522;BME280;74758;50.066;20.008;2024-01-30T04:07:31;101052.04;;;-1.66;71.91
84522;BME280;74758;50.066;20.008;2024-01-30T04:09:33;101053.54;;;-1.61;71.76
84522;BME280;74758;50.066;20.008;2024-01-30T04:11:35;101052.14;;;-1.60;71.52
84522;BME280;74758;50.066;20.008;2024-01-30T04:13:36;101053.36;;;-1.60;71.56
84522;BME280;74758;50.066;20.008;2024-01-30T04:15:39;101055.96;;;-1.62;71.00
84522;BME280;74758;50.066;20.008;2024-01-30T04:17:41;101057.54;;;-1.64;71.48
84522;BME280;74758;50.066;20.008;2024-01-30T04:19:43;101061.87;;;-1.66;71.20
84522;BME280;74758;50.066;20.008;2024-01-30T04:21:44;101059.65;;;-1.68;71.63
84522;BME280;74758;50.066;20.008;2024-01-30T04:23:46;101057.60;;;-1.69;71.43
84522;BME280;74758;50.066;20.008;2024-01-30T04:25:48;101055.73;;;-1.72;71.37
84522;BME280;74758;50.066;20.008;2024-01-30T04:27:50;101056.44;;;-1.73;71.68
84522;BME280;74758;50.066;20.008;2024-01-30T04:29:51;101054.38;;;-1.75;71.70
84522;BME280;74758;50.066;20.008;2024-01-30T04:31:53;101051.98;;;-1.75;71.89
84522;BME280;74758;50.066;20.008;2024-01-30T04:33:55;101055.95;;;-1.76;72.19
84522;BME280;74758;50.066;20.008;2024-01-30T04:35:57;101062.33;;;-1.76;71.88
84522;BME280;74758;50.066;20.008;2024-01-30T04:37:58;101060.26;;;-1.76;72.08
84522;BME280;74758;50.066;20.008;2024-01-30T04:40:00;101068.50;;;-1.74;72.01
84522;BME280;74758;50.066;20.008;2024-01-30T04:42:02;101065.73;;;-1.72;72.00
84522;BME280;74758;50.066;20.008;2024-01-30T04:44:05;101069.83;;;-1.68;71.89
84522;BME280;74758;50.066;20.008;2024-01-30T04:46:08;101072.21;;;-1.66;71.37
84522;BME280;74758;50.066;20.008;2024-01-30T04:48:10;101071.15;;;-1.63;71.18
84522;BME280;74758;50.066;20.008;2024-01-30T04:50:11;101070.09;;;-1.61;71.11
84522;BME280;74758;50.066;20.008;2024-01-30T04:52:13;101074.39;;;-1.60;70.99
84522;BME280;74758;50.066;20.008;2024-01-30T04:54:15;101071.80;;;-1.60;71.05
84522;BME280;74758;50.066;20.008;2024-01-30T04:56:16;101074.57;;;-1.61;71.05
84522;BME280;74758;50.066;20.008;2024-01-30T04:58:18;101068.54;;;-1.62;70.71
84522;BME280;74758;50.066;20.008;2024-01-30T05:00:20;101065.44;;;-1.61;70.88
84522;BME280;74758;50.066;20.008;2024-01-30T05:02:21;101068.38;;;-1.62;71.45
84522;BME280;74758;50.066;20.008;2024-01-30T05:04:23;101067.67;;;-1.61;71.42
84522;BME280;74758;50.066;20.008;2024-01-30T05:06:29;101070.44;;;-1.61;71.87
84522;BME280;74758;50.066;20.008;2024-01-30T05:08:31;101069.75;;;-1.62;71.84
84522;BME280;74758;50.066;20.008;2024-01-30T05:10:33;101069.94;;;-1.63;72.00
84522;BME280;74758;50.066;20.008;2024-01-30T05:12:35;101071.34;;;-1.65;71.76
84522;BME280;74758;50.066;20.008;2024-01-30T05:14:37;101074.45;;;-1.66;71.35
84522;BME280;74758;50.066;20.008;2024-01-30T05:16:39;101078.80;;;-1.69;71.41
84522;BME280;74758;50.066;20.008;2024-01-30T05:18:40;101080.02;;;-1.71;71.22
84522;BME280;74758;50.066;20.008;2024-01-30T05:20:42;101079.85;;;-1.71;71.21
84522;BME280;74758;50.066;20.008;2024-01-30T05:22:44;101078.64;;;-1.70;71.15
84522;BME280;74758;50.066;20.008;2024-01-30T05:24:47;101077.21;;;-1.66;71.03
84522;BME280;74758;50.066;20.008;2024-01-30T05:26:48;101070.96;;;-1.62;70.57
84522;BME280;74758;50.066;20.008;2024-01-30T05:28:51;101070.42;;;-1.60;70.98
84522;BME280;74758;50.066;20.008;2024-01-30T05:30:53;101070.77;;;-1.61;71.05
84522;BME280;74758;50.066;20.008;2024-01-30T05:32:54;101074.39;;;-1.60;70.93
84522;BME280;74758;50.066;20.008;2024-01-30T05:34:56;101070.46;;;-1.64;70.70
84522;BME280;74758;50.066;20.008;2024-01-30T05:36:58;101071.04;;;-1.69;70.66
84522;BME280;74758;50.066;20.008;2024-01-30T05:39:00;101071.06;;;-1.71;70.64
84522;BME280;74758;50.066;20.008;2024-01-30T05:41:02;101069.20;;;-1.75;70.80
84522;BME280;74758;50.066;20.008;2024-01-30T05:43:04;101071.30;;;-1.77;70.98
84522;BME280;74758;50.066;20.008;2024-01-30T05:45:06;101077.36;;;-1.79;70.78
84522;BME280;74758;50.066;20.008;2024-01-30T05:47:08;101076.00;;;-1.81;70.96
84522;BME280;74758;50.066;20.008;2024-01-30T05:49:09;101078.95;;;-1.83;70.87
84522;BME280;74758;50.066;20.008;2024-01-30T05:51:11;101077.95;;;-1.85;70.71
84522;BME280;74758;50.066;20.008;2024-01-30T05:53:13;101072.11;;;-1.87;70.85
84522;BME280;74758;50.066;20.008;2024-01-30T05:55:15;101077.64;;;-1.89;70.92
84522;BME280;74758;50.066;20.008;2024-01-30T05:57:16;101076.45;;;-1.91;70.71
84522;BME280;74758;50.066;20.008;2024-01-30T05:59:18;101078.02;;;-1.93;70.90
84522;BME280;74758;50.066;20.008;2024-01-30T06:01:20;101077.85;;;-1.93;71.00
84522;BME280;74758;50.066;20.008;2024-01-30T06:03:22;101079.04;;;-1.92;70.75
84522;BME280;74758;50.066;20.008;2024-01-30T06:05:24;101074.00;;;-1.88;70.93
84522;BME280;74758;50.066;20.008;2024-01-30T06:07:25;101073.61;;;-1.83;70.72
84522;BME280;74758;50.066;20.008;2024-01-30T06:09:28;101073.23;;;-1.81;70.70
84522;BME280;74758;50.066;20.008;2024-01-30T06:11:30;101080.11;;;-1.79;70.71
84522;BME280;74758;50.066;20.008;2024-01-30T06:13:32;101079.41;;;-1.78;70.63
84522;BME280;74758;50.066;20.008;2024-01-30T06:15:34;101077.17;;;-1.78;70.50
84522;BME280;74758;50.066;20.008;2024-01-30T06:17:36;101081.30;;;-1.77;70.73
84522;BME280;74758;50.066;20.008;2024-01-30T06:19:38;101081.64;;;-1.77;70.58
84522;BME280;74758;50.066;20.008;2024-01-30T06:21:43;101081.64;;;-1.76;70.80
84522;BME280;74758;50.066;20.008;2024-01-30T06:23:45;101082.16;;;-1.76;70.75
84522;BME280;74758;50.066;20.008;2024-01-30T06:25:46;101078.72;;;-1.77;70.80
84522;BME280;74758;50.066;20.008;2024-01-30T06:27:48;101071.30;;;-1.78;70.69
84522;BME280;74758;50.066;20.008;2024-01-30T06:29:50;101072.70;;;-1.79;70.49
84522;BME280;74758;50.066;20.008;2024-01-30T06:31:52;101077.20;;;-1.80;70.53
84522;BME280;74758;50.066;20.008;2024-01-30T06:33:53;101076.48;;;-1.78;70.72
84522;BME280;74758;50.066;20.008;2024-01-30T06:35:55;101075.61;;;-1.76;70.50
84522;BME280;74758;50.066;20.008;2024-01-30T06:37:57;101073.55;;;-1.77;70.89
84522;BME280;74758;50.066;20.008;2024-01-30T06:39:59;101072.69;;;-1.78;70.79
84522;BME280;74758;50.066;20.008;2024-01-30T06:42:01;101073.59;;;-1.80;70.98
84522;BME280;74758;50.066;20.008;2024-01-30T06:44:02;101074.95;;;-1.80;70.79
84522;BME280;74758;50.066;20.008;2024-01-30T06:46:09;101076.31;;;-1.78;70.60
84522;BME280;74758;50.066;20.008;2024-01-30T06:48:11;101076.80;;;-1.76;70.60
84522;BME280;74758;50.066;20.008;2024-01-30T06:50:13;101078.15;;;-1.73;70.95
84522;BME280;74758;50.066;20.008;2024-01-30T06:52:15;101076.91;;;-1.70;70.61
84522;BME280;74758;50.066;20.008;2024-01-30T06:54:16;101079.10;;;-1.66;70.73
84522;BME280;74758;50.066;20.008;2024-01-30T06:56:18;101083.02;;;-1.63;70.81
84522;BME280;74758;50.066;20.008;2024-01-30T06:58:22;101084.38;;;-1.58;70.94
84522;BME280;74758;50.066;20.008;2024-01-30T07:00:24;101080.55;;;-1.56;71.01
84522;BME280;74758;50.066;20.008;2024-01-30T07:02:25;101080.14;;;-1.50;71.07
84522;BME280;74758;50.066;20.008;2024-01-30T07:04:27;101075.42;;;-1.47;71.23
84522;BME280;74758;50.066;20.008;2024-01-30T07:06:29;101076.25;;;-1.43;70.98
84522;BME280;74758;50.066;20.008;2024-01-30T07:08:31;101075.86;;;-1.39;71.22
84522;BME280;74758;50.066;20.008;2024-01-30T07:10:32;101074.44;;;-1.36;71.43
84522;BME280;74758;50.066;20.008;2024-01-30T07:12:34;101072.52;;;-1.34;70.89
84522;BME280;74758;50.066;20.008;2024-01-30T07:14:36;101070.59;;;-1.32;71.42
84522;BME280;74758;50.066;20.008;2024-01-30T07:16:38;101070.58;;;-1.27;71.41
84522;BME280;74758;50.066;20.008;2024-01-30T07:18:40;101072.59;;;-1.23;71.45
84522;BME280;74758;50.066;20.008;2024-01-30T07:20:42;101076.04;;;-1.23;71.57
84522;BME280;74758;50.066;20.008;2024-01-30T07:22:50;101076.50;;;-1.20;72.13
84522;BME280;74758;50.066;20.008;2024-01-30T07:24:52;101075.20;;;-1.13;72.13
84522;BME280;74758;50.066;20.008;2024-01-30T07:26:54;101078.23;;;-1.07;72.25
84522;BME280;74758;50.066;20.008;2024-01-30T07:28:56;101083.84;;;-1.00;72.33
84522;BME280;74758;50.066;20.008;2024-01-30T07:30:57;101083.56;;;-0.94;72.32
84522;BME280;74758;50.066;20.008;2024-01-30T07:32:59;101082.07;;;-0.85;72.47
84522;BME280;74758;50.066;20.008;2024-01-30T07:35:01;101082.62;;;-0.76;72.32
84522;BME280;74758;50.066;20.008;2024-01-30T07:37:09;101084.58;;;-0.68;72.15
84522;BME280;74758;50.066;20.008;2024-01-30T07:39:12;101081.55;;;-0.60;72.16
84522;BME280;74758;50.066;20.008;2024-01-30T07:41:14;101083.33;;;-0.53;72.31
84522;BME280;74758;50.066;20.008;2024-01-30T07:43:15;101080.64;;;-0.46;72.19
84522;BME280;74758;50.066;20.008;2024-01-30T07:45:17;101081.55;;;-0.39;72.30
84522;BME280;74758;50.066;20.008;2024-01-30T07:47:24;101080.39;;;-0.31;72.61
84522;BME280;74758;50.066;20.008;2024-01-30T07:49:25;101081.11;;;-0.22;72.68
84522;BME280;74758;50.066;20.008;2024-01-30T07:51:27;101081.14;;;-0.15;72.47
84522;BME280;74758;50.066;20.008;2024-01-30T07:53:30;101078.58;;;-0.06;72.61
84522;BME280;74758;50.066;20.008;2024-01-30T07:55:32;101074.64;;;0.03;72.62
84522;BME280;74758;50.066;20.008;2024-01-30T07:57:34;101079.10;;;0.23;72.68
84522;BME280;74758;50.066;20.008;2024-01-30T07:59:36;101074.98;;;1.07;71.20
84522;BME280;74758;50.066;20.008;2024-01-30T08:01:38;101070.30;;;1.45;70.50
84522;BME280;74758;50.066;20.008;2024-01-30T08:03:40;101071.17;;;1.46;70.53
84522;BME280;74758;50.066;20.008;2024-01-30T08:05:43;101073.03;;;1.55;70.62
84522;BME280;74758;50.066;20.008;2024-01-30T08:07:45;101071.88;;;2.27;69.24
84522;BME280;74758;50.066;20.008;2024-01-30T08:09:48;101071.81;;;3.69;66.61
84522;BME280;74758;50.066;20.008;2024-01-30T08:11:49;101070.41;;;4.97;63.84
84522;BME280;74758;50.066;20.008;2024-01-30T08:13:52;101071.23;;;6.20;62.04
84522;BME280;74758;50.066;20.008;2024-01-30T08:15:54;101071.88;;;7.33;59.73
84522;BME280;74758;50.066;20.008;2024-01-30T08:17:56;101073.17;;;8.35;57.65
84522;BME280;74758;50.066;20.008;2024-01-30T08:19:59;101064.05;;;9.29;55.57
84522;BME280;74758;50.066;20.008;2024-01-30T08:22:01;101064.63;;;10.13;53.87
84522;BME280;74758;50.066;20.008;2024-01-30T08:24:04;101068.27;;;10.95;52.14
84522;BME280;74758;50.066;20.008;2024-01-30T08:26:06;101068.74;;;11.70;50.27
84522;BME280;74758;50.066;20.008;2024-01-30T08:28:08;101069.65;;;12.38;48.32
84522;BME280;74758;50.066;20.008;2024-01-30T08:30:10;101061.10;;;13.04;47.07
84522;BME280;74758;50.066;20.008;2024-01-30T08:32:12;101061.77;;;13.70;45.76
84522;BME280;74758;50.066;20.008;2024-01-30T08:34:14;101062.78;;;14.32;44.40
84522;BME280;74758;50.066;20.008;2024-01-30T08:36:16;101059.08;;;14.86;43.29
84522;BME280;74758;50.066;20.008;2024-01-30T08:38:18;101061.94;;;15.38;42.33
84522;BME280;74758;50.066;20.008;2024-01-30T08:40:20;101064.55;;;15.93;41.45
84522;BME280;74758;50.066;20.008;2024-01-30T08:42:22;101060.86;;;16.43;40.24
84522;BME280;74758;50.066;20.008;2024-01-30T08:44:24;101060.17;;;16.92;38.97
84522;BME280;74758;50.066;20.008;2024-01-30T08:46:26;101059.90;;;17.34;37.89
84522;BME280;74758;50.066;20.008;2024-01-30T08:48:27;101058.69;;;17.74;36.77
84522;BME280;74758;50.066;20.008;2024-01-30T08:50:29;101058.36;;;17.96;35.54
84522;BME280;74758;50.066;20.008;2024-01-30T08:52:31;101053.72;;;18.10;35.07
84522;BME280;74758;50.066;20.008;2024-01-30T08:54:34;101055.52;;;18.31;34.82
84522;BME280;74758;50.066;20.008;2024-01-30T08:56:36;101051.02;;;18.57;34.33
84522;BME280;74758;50.066;20.008;2024-01-30T08:58:38;101051.84;;;18.77;33.18
84522;BME280;74758;50.066;20.008;2024-01-30T09:00:39;101052.61;;;18.91;32.63
84522;BME280;74758;50.066;20.008;2024-01-30T09:02:41;101046.55;;;18.90;32.16
84522;BME280;74758;50.066;20.008;2024-01-30T09:04:43;101049.80;;;18.91;31.88
84522;BME280;74758;50.066;20.008;2024-01-30T09:06:45;101050.64;;;18.86;31.67
84522;BME280;74758;50.066;20.008;2024-01-30T09:08:47;101051.52;;;18.84;31.58
84522;BME280;74758;50.066;20.008;2024-01-30T09:10:50;101055.74;;;18.77;31.31
84522;BME280;74758;50.066;20.008;2024-01-30T09:12:52;101048.13;;;18.77;31.23
84522;BME280;74758;50.066;20.008;2024-01-30T09:14:54;101049.76;;;18.88;31.33
84522;BME280;74758;50.066;20.008;2024-01-30T09:16:56;101051.67;;;18.99;31.12
84522;BME280;74758;50.066;20.008;2024-01-30T09:18:58;101053.37;;;19.13;31.01
84522;BME280;74758;50.066;20.008;2024-01-30T09:21:00;101051.25;;;19.18;30.47
84522;BME280;74758;50.066;20.008;2024-01-30T09:23:02;101050.27;;;19.17;30.44
84522;BME280;74758;50.066;20.008;2024-01-30T09:25:04;101044.98;;;19.22;30.50
84522;BME280;74758;50.066;20.008;2024-01-30T09:27:06;101043.71;;;19.26;30.20
84522;BME280;74758;50.066;20.008;2024-01-30T09:29:08;101036.04;;;19.20;29.88
84522;BME280;74758;50.066;20.008;2024-01-30T09:31:10;101036.16;;;19.14;29.47
84522;BME280;74758;50.066;20.008;2024-01-30T09:33:12;101032.95;;;19.01;29.44
84522;BME280;74758;50.066;20.008;2024-01-30T09:35:14;101031.58;;;18.91;29.52
84522;BME280;74758;50.066;20.008;2024-01-30T09:37:16;101029.34;;;18.83;29.72
84522;BME280;74758;50.066;20.008;2024-01-30T09:39:19;101026.29;;;18.83;29.58
84522;BME280;74758;50.066;20.008;2024-01-30T09:41:23;101027.20;;;18.87;29.62
84522;BME280;74758;50.066;20.008;2024-01-30T09:43:27;101031.09;;;19.02;29.97
84522;BME280;74758;50.066;20.008;2024-01-30T09:45:32;101025.98;;;19.27;29.86
84522;BME280;74758;50.066;20.008;2024-01-30T09:47:40;101024.77;;;19.44;29.53
84522;BME280;74758;50.066;20.008;2024-01-30T09:49:46;101025.17;;;19.62;29.23
84522;BME280;74758;50.066;20.008;2024-01-30T09:51:49;101024.23;;;19.73;29.26
84522;BME280;74758;50.066;20.008;2024-01-30T09:53:52;101025.05;;;19.86;29.17
84522;BME280;74758;50.066;20.008;2024-01-30T09:55:56;101022.45;;;19.84;28.69
84522;BME280;74758;50.066;20.008;2024-01-30T09:57:57;101021.55;;;19.72;28.41
84522;BME280;74758;50.066;20.008;2024-01-30T10:00:01;101017.94;;;19.50;28.40
84522;BME280;74758;50.066;20.008;2024-01-30T10:02:03;101014.05;;;19.21;28.43
84522;BME280;74758;50.066;20.008;2024-01-30T10:04:07;101012.80;;;18.96;28.85
84522;BME280;74758;50.066;20.008;2024-01-30T10:06:08;101008.02;;;18.79;28.93
84522;BME280;74758;50.066;20.008;2024-01-30T10:08:11;100999.40;;;18.55;28.85
84522;BME280;74758;50.066;20.008;2024-01-30T10:10:13;101000.04;;;18.28;29.12
84522;BME280;74758;50.066;20.008;2024-01-30T10:12:15;100996.08;;;18.14;29.27
84522;BME280;74758;50.066;20.008;2024-01-30T10:14:16;100995.10;;;17.90;29.34
84522;BME280;74758;50.066;20.008;2024-01-30T10:16:18;100990.39;;;17.83;30.20
84522;BME280;74758;50.066;20.008;2024-01-30T10:18:22;100987.90;;;17.95;30.22
84522;BME280;74758;50.066;20.008;2024-01-30T10:20:25;100985.42;;;18.10;30.33
84522;BME280;74758;50.066;20.008;2024-01-30T10:22:26;100985.20;;;18.27;29.57
84522;BME280;74758;50.066;20.008;2024-01-30T10:24:28;100981.41;;;18.33;29.27
84522;BME280;74758;50.066;20.008;2024-01-30T10:26:33;100982.02;;;18.42;29.33
84522;BME280;74758;50.066;20.008;2024-01-30T10:28:36;100979.31;;;18.55;29.28
84522;BME280;74758;50.066;20.008;2024-01-30T10:30:37;100977.31;;;18.74;28.70